Time;durP1;ratioP1;P1;durP2;ratioP2;P2;SDS_P1;SDS_P2;PMS_P1;PMS_P2;Temp;Humidity;BMP_temperature;BMP_pressure;BME280_temperature;BME280_humidity;BME280_pressure;Samples;Min_cycle;Max_cycle;Signal;HPM_P1;HPM_P2
2023/05/23 00:02:18;;;;;;;56.55;38.97;;;;;;;16.91;98.20;95505.31;6274051;22;20195;-84
2023/05/23 00:04:43;;;;;;;62.78;40.60;;;;;;;16.85;99.06;95505.25;6248278;22;20524;-84
2023/05/23 00:07:09;;;;;;;56.25;38.28;;;;;;;16.90;98.38;95505.50;6247733;22;20157;-84
2023/05/23 00:09:34;;;;;;;54.83;38.00;;;;;;;16.92;98.48;95498.25;6276154;22;20149;-84
2023/05/23 00:11:59;;;;;;;44.47;33.53;;;;;;;16.84;98.79;95493.94;6274124;22;20487;-84
2023/05/23 00:14:25;;;;;;;43.60;32.55;;;;;;;16.87;98.31;95496.22;6274559;22;20234;-85
2023/05/23 00:16:51;;;;;;;39.95;32.30;;;;;;;16.89;98.13;95496.03;6273962;22;20149;-83
2023/05/23 00:19:16;;;;;;;49.47;33.63;;;;;;;16.87;98.15;95496.22;6264526;22;20184;-83
2023/05/23 00:21:42;;;;;;;43.50;32.33;;;;;;;16.86;98.32;95493.75;6308512;22;20159;-83
2023/05/23 00:24:08;;;;;;;49.58;35.40;;;;;;;16.84;98.03;95495.75;6308495;22;20128;-84
2023/05/23 00:26:34;;;;;;;49.00;35.97;;;;;;;16.76;99.11;95501.13;6309780;22;20180;-84
2023/05/23 00:29:00;;;;;;;59.88;40.33;;;;;;;16.67;99.68;95495.16;6309814;22;20151;-83
2023/05/23 00:31:25;;;;;;;55.78;40.53;;;;;;;16.69;99.96;95493.19;6309508;22;20162;-84
2023/05/23 00:33:51;;;;;;;66.70;41.78;;;;;;;16.64;100.00;95495.53;6284002;22;20148;-84
2023/05/23 00:36:17;;;;;;;69.75;43.70;;;;;;;16.63;100.00;95504.41;6283026;22;20178;-83
2023/05/23 00:38:44;;;;;;;68.57;45.70;;;;;;;16.60;100.00;95499.50;6284070;22;20175;-83
2023/05/23 00:41:10;;;;;;;66.20;43.40;;;;;;;16.73;99.60;95506.75;6309022;22;20162;-84
2023/05/23 00:43:35;;;;;;;64.55;45.03;;;;;;;16.66;100.00;95507.44;6308782;22;20141;-83
2023/05/23 00:46:00;;;;;;;64.85;46.08;;;;;;;16.65;100.00;95503.22;6290173;22;20160;-84
2023/05/23 00:48:26;;;;;;;71.57;46.65;;;;;;;16.60;100.00;95502.13;6281868;22;20151;-84
2023/05/23 00:50:53;;;;;;;74.70;49.08;;;;;;;16.55;100.00;95502.72;6263540;22;20219;-84
2023/05/23 00:53:18;;;;;;;77.80;49.13;;;;;;;16.62;100.00;95505.41;6257391;22;20159;-84
2023/05/23 00:55:44;;;;;;;78.05;51.58;;;;;;;16.56;100.00;95504.31;6280545;22;20155;-83
2023/05/23 00:58:10;;;;;;;81.13;54.20;;;;;;;16.59;100.00;95498.69;6279389;22;20645;-83
2023/05/23 01:00:37;;;;;;;79.50;52.30;;;;;;;16.58;100.00;95502.31;6279817;22;20156;-84
2023/05/23 01:03:03;;;;;;;78.80;53.97;;;;;;;16.60;100.00;95507.38;6306635;22;20226;-85
2023/05/23 01:05:29;;;;;;;85.28;55.08;;;;;;;16.66;100.00;95506.66;6253446;22;20163;-84
2023/05/23 01:07:54;;;;;;;83.57;54.50;;;;;;;16.67;99.94;95506.44;6253397;22;20613;-85
2023/05/23 01:10:26;;;;;;;88.55;55.00;;;;;;;16.65;100.00;95513.69;6253891;22;20597;-85
2023/05/23 01:12:57;;;;;;;82.68;55.20;;;;;;;16.73;100.00;95518.06;6253525;22;20170;-84
2023/05/23 01:15:37;;;;;;;92.20;56.30;;;;;;;16.66;100.00;95520.56;6304600;22;20166;-84
2023/05/23 01:18:37;;;;;;;88.68;55.83;;;;;;;16.79;99.48;95524.38;6305006;22;20142;-85
2023/05/23 01:21:10;;;;;;;81.05;54.65;;;;;;;16.72;100.00;95516.44;6262232;22;20249;-84
2023/05/23 01:24:03;;;;;;;87.60;55.22;;;;;;;16.47;100.00;95522.97;6305945;22;20128;-84
2023/05/23 01:27:12;;;;;;;95.78;58.20;;;;;;;16.45;100.00;95527.59;6304081;22;20202;-84
2023/05/23 01:29:44;;;;;;;84.18;56.42;;;;;;;16.64;100.00;95517.31;6267288;22;20493;-84
2023/05/23 01:32:11;;;;;;;90.93;57.17;;;;;;;16.65;100.00;95518.13;6252949;22;20230;-84
2023/05/23 01:34:37;;;;;;;87.22;56.92;;;;;;;16.60;99.87;95515.25;6278951;22;20148;-84
2023/05/23 01:37:07;;;;;;;82.65;55.30;;;;;;;16.65;99.70;95518.94;6227818;22;20171;-84
2023/05/23 01:39:32;;;;;;;85.07;57.40;;;;;;;16.62;99.81;95518.50;6278687;22;20187;-84
2023/05/23 01:41:57;;;;;;;88.07;58.15;;;;;;;16.61;100.00;95522.94;6279332;22;20180;-84
2023/05/23 01:44:23;;;;;;;85.22;55.67;;;;;;;16.64;99.48;95509.44;6253199;22;20557;-84
2023/05/23 01:46:48;;;;;;;86.10;56.58;;;;;;;16.70;98.99;95510.56;6252535;22;20156;-83
2023/05/23 01:49:14;;;;;;;82.53;54.80;;;;;;;16.63;99.41;95514.88;6279031;22;20187;-84
2023/05/23 01:51:39;;;;;;;81.80;56.50;;;;;;;16.64;99.22;95512.06;6278679;22;20176;-84
2023/05/23 01:54:05;;;;;;;82.95;56.97;;;;;;;16.72;98.86;95520.84;6253202;22;20160;-85
2023/05/23 01:56:31;;;;;;;78.78;53.58;;;;;;;16.80;98.17;95523.38;6277942;22;20160;-84
2023/05/23 01:58:56;;;;;;;82.40;55.65;;;;;;;16.74;99.21;95516.22;6278630;22;20179;-84
2023/05/23 02:01:21;;;;;;;82.03;57.35;;;;;;;16.60;99.67;95526.53;6279345;22;20168;-85
2023/05/23 02:03:47;;;;;;;85.72;56.63;;;;;;;16.67;99.50;95522.19;6278898;22;20489;-84
2023/05/23 02:06:12;;;;;;;85.20;56.05;;;;;;;16.61;99.78;95517.69;6278296;22;20152;-84
2023/05/23 02:08:38;;;;;;;88.00;56.08;;;;;;;16.76;98.63;95522.09;6278882;22;20144;-85
2023/05/23 02:11:03;;;;;;;82.97;55.70;;;;;;;16.75;99.22;95523.09;6305893;22;20283;-84
2023/05/23 02:13:28;;;;;;;82.78;55.95;;;;;;;16.73;98.89;95525.91;6278862;22;20174;-83
2023/05/23 02:15:54;;;;;;;90.50;55.92;;;;;;;16.73;99.41;95520.66;6304059;22;20159;-84
2023/05/23 02:18:20;;;;;;;79.93;55.42;;;;;;;16.76;99.04;95524.72;6305880;22;20631;-84
2023/05/23 02:20:45;;;;;;;84.65;56.55;;;;;;;16.70;99.35;95521.88;6278738;22;20180;-84
2023/05/23 02:23:11;;;;;;;80.68;54.53;;;;;;;16.69;99.55;95524.66;6278684;22;20606;-84
2023/05/23 02:25:36;;;;;;;78.50;54.88;;;;;;;16.70;99.16;95515.81;6303627;22;20148;-83
2023/05/23 02:28:01;;;;;;;82.50;55.85;;;;;;;16.64;99.49;95522.56;6305318;22;20360;-84
2023/05/23 02:30:27;;;;;;;88.07;57.55;;;;;;;16.63;99.98;95520.94;6307462;22;20152;-83
2023/05/23 02:32:52;;;;;;;81.80;54.22;;;;;;;16.73;98.55;95522.47;6280899;22;20489;-85
2023/05/23 02:35:17;;;;;;;75.22;53.33;;;;;;;16.67;98.94;95522.19;6255233;22;20156;-84
2023/05/23 02:37:43;;;;;;;77.72;53.28;;;;;;;16.67;98.89;95522.19;6254190;22;20551;-85
2023/05/23 02:40:09;;;;;;;79.65;53.38;;;;;;;16.54;99.05;95527.31;6306423;22;20226;-85
2023/05/23 02:42:34;;;;;;;73.72;49.92;;;;;;;16.54;99.33;95532.53;6280360;22;20179;-84
2023/05/23 02:45:00;;;;;;;74.20;53.00;;;;;;;16.37;100.00;95533.75;6254984;22;20152;-85
2023/05/23 02:47:25;;;;;;;76.40;52.78;;;;;;;16.52;98.83;95528.47;6254953;22;20152;-85
2023/05/23 02:49:50;;;;;;;68.22;50.47;;;;;;;16.48;99.65;95538.50;6308258;22;20148;-85
2023/05/23 02:52:16;;;;;;;77.63;52.70;;;;;;;16.56;98.63;95541.03;6307759;22;20186;-84
2023/05/23 02:54:42;;;;;;;71.63;51.75;;;;;;;16.42;99.61;95539.25;6306339;22;20159;-83
2023/05/23 02:57:07;;;;;;;71.15;51.10;;;;;;;16.54;98.86;95543.03;6307253;22;20151;-85
2023/05/23 02:59:32;;;;;;;72.10;51.03;;;;;;;16.48;99.28;95542.94;6307990;22;20679;-83
2023/05/23 03:01:58;;;;;;;64.40;48.22;;;;;;;16.43;99.10;95544.31;6281322;22;20548;-84
2023/05/23 03:04:23;;;;;;;65.03;48.75;;;;;;;16.44;99.62;95545.13;6280806;22;20225;-84
2023/05/23 03:06:48;;;;;;;66.80;48.95;;;;;;;16.51;98.93;95543.38;6307314;22;20752;-83
2023/05/23 03:09:15;;;;;;;69.93;50.60;;;;;;;16.44;99.75;95539.88;6281137;22;20148;-83
2023/05/23 03:11:41;;;;;;;71.32;48.65;;;;;;;16.41;100.00;95537.63;6255115;22;20187;-85
2023/05/23 03:14:06;;;;;;;67.28;48.97;;;;;;;16.47;99.96;95536.09;6280262;22;20155;-84
2023/05/23 03:16:32;;;;;;;68.65;50.35;;;;;;;16.40;100.00;95543.84;6279890;22;20225;-84
2023/05/23 03:18:57;;;;;;;69.55;50.05;;;;;;;16.42;99.58;95541.84;6280501;22;20633;-84
2023/05/23 03:21:22;;;;;;;66.88;49.03;;;;;;;16.54;98.84;95544.84;6307560;22;20179;-84
2023/05/23 03:23:48;;;;;;;71.20;49.92;;;;;;;16.53;99.14;95541.41;6306416;22;20159;-83
2023/05/23 03:26:14;;;;;;;64.28;48.10;;;;;;;16.48;98.87;95548.19;6254532;22;20160;-84
2023/05/23 03:28:39;;;;;;;61.42;46.95;;;;;;;16.48;99.79;95551.63;6280288;22;20159;-83
2023/05/23 03:31:05;;;;;;;65.70;48.88;;;;;;;16.36;99.90;95548.66;6280969;22;20213;-84
2023/05/23 03:33:30;;;;;;;64.25;46.78;;;;;;;16.38;100.00;95554.53;6254791;22;20586;-84
2023/05/23 03:35:56;;;;;;;65.50;48.08;;;;;;;16.27;100.00;95552.38;6280030;22;20624;-84
2023/05/23 03:38:21;;;;;;;69.22;48.33;;;;;;;16.41;100.00;95548.91;6279985;22;20176;-85
2023/05/23 03:40:47;;;;;;;67.10;48.63;;;;;;;16.35;100.00;95554.09;6280143;22;20199;-83
2023/05/23 03:43:12;;;;;;;62.10;48.05;;;;;;;16.38;100.00;95553.72;6254134;22;20156;-84
2023/05/23 03:45:37;;;;;;;59.15;47.17;;;;;;;16.37;99.68;95552.91;6280564;22;20643;-83
2023/05/23 03:48:02;;;;;;;65.20;49.33;;;;;;;16.32;100.00;95546.56;6254275;22;20540;-84
2023/05/23 03:50:28;;;;;;;60.13;45.80;;;;;;;16.29;100.00;95560.06;6280553;22;20467;-83
2023/05/23 03:52:53;;;;;;;59.83;47.42;;;;;;;16.34;100.00;95555.06;6307386;22;20516;-83
2023/05/23 03:55:23;;;;;;;65.90;48.55;;;;;;;16.33;100.00;95556.88;6307644;22;20152;-83
2023/05/23 03:57:50;;;;;;;64.03;47.58;;;;;;;16.28;100.00;95567.09;6253336;22;20159;-86
2023/05/23 04:00:15;;;;;;;60.80;47.60;;;;;;;16.23;100.00;95561.59;6254760;22;20259;-83
2023/05/23 04:02:41;;;;;;;66.93;50.28;;;;;;;16.09;100.00;95562.41;6307472;22;20214;-84
2023/05/23 04:05:06;;;;;;;73.22;50.45;;;;;;;16.23;100.00;95558.16;6307750;22;20225;-85
2023/05/23 04:07:35;;;;;;;59.45;47.58;;;;;;;16.27;100.00;95568.09;6279988;22;20164;-85
2023/05/23 04:10:01;;;;;;;68.32;53.20;;;;;;;16.14;100.00;95563.50;6282855;22;20613;-84
2023/05/23 04:12:26;;;;;;;64.13;50.55;;;;;;;16.13;100.00;95561.06;6308632;22;20167;-85
2023/05/23 04:14:51;;;;;;;63.78;51.63;;;;;;;16.15;100.00;95567.72;6307832;22;20206;-85
2023/05/23 04:17:17;;;;;;;67.55;53.65;;;;;;;16.06;100.00;95566.19;6255595;22;20536;-86
2023/05/23 04:19:43;;;;;;;66.18;52.83;;;;;;;16.07;100.00;95572.25;6249978;22;20192;-85
2023/05/23 04:22:08;;;;;;;72.07;56.35;;;;;;;15.97;100.00;95577.75;6249380;22;20172;-85
2023/05/23 04:24:33;;;;;;;74.03;55.00;;;;;;;15.99;100.00;95575.78;6248989;22;20156;-85
2023/05/23 04:26:59;;;;;;;69.63;54.70;;;;;;;16.11;100.00;95576.97;6248902;22;20160;-85
2023/05/23 04:29:25;;;;;;;72.35;54.63;;;;;;;16.10;100.00;95570.09;6279289;22;20157;-83
2023/05/23 04:31:50;;;;;;;73.38;57.08;;;;;;;16.07;100.00;95573.06;6275819;22;20172;-82
2023/05/23 04:34:16;;;;;;;68.30;54.30;;;;;;;16.08;100.00;95573.91;6249176;22;20257;-83
2023/05/23 04:36:43;;;;;;;75.63;55.47;;;;;;;15.97;100.00;95575.13;6248093;22;20843;-83
2023/05/23 04:39:09;;;;;;;70.75;54.33;;;;;;;15.93;100.00;95575.69;6223931;22;20181;-83
2023/05/23 04:41:35;;;;;;;71.75;54.67;;;;;;;15.95;100.00;95579.75;6223861;22;20184;-83
2023/05/23 04:44:00;;;;;;;73.72;55.40;;;;;;;15.98;100.00;95578.56;6249248;22;20153;-82
2023/05/23 04:46:25;;;;;;;74.43;54.88;;;;;;;15.98;100.00;95583.81;6273634;22;20149;-83
2023/05/23 04:48:52;;;;;;;70.13;54.25;;;;;;;15.96;100.00;95596.28;6248467;22;20271;-82
2023/05/23 04:51:20;;;;;;;69.32;53.55;;;;;;;16.01;100.00;95593.94;6223288;22;20187;-84
2023/05/23 04:53:45;;;;;;;70.43;53.78;;;;;;;15.94;100.00;95588.59;6274180;22;20228;-83
2023/05/23 04:56:11;;;;;;;70.28;54.97;;;;;;;15.82;100.00;95590.03;6273505;22;20534;-82
2023/05/23 04:58:36;;;;;;;66.15;55.20;;;;;;;15.78;100.00;95594.00;6248282;22;20188;-83
2023/05/23 05:01:01;;;;;;;70.00;55.67;;;;;;;15.94;99.83;95598.25;6248814;22;20183;-83
2023/05/23 05:03:27;;;;;;;68.28;55.47;;;;;;;15.84;100.00;95604.56;6275495;22;20493;-83
2023/05/23 05:05:52;;;;;;;66.68;53.60;;;;;;;15.91;99.75;95602.06;6247570;22;20179;-82
2023/05/23 05:08:18;;;;;;;72.32;55.78;;;;;;;15.78;100.00;95605.28;6248255;22;20625;-83
2023/05/23 05:10:44;;;;;;;69.57;55.40;;;;;;;15.76;100.00;95606.47;6248339;22;20160;-83
2023/05/23 05:13:09;;;;;;;71.20;54.20;;;;;;;15.72;100.00;95600.75;6274081;22;20153;-83
2023/05/23 05:15:35;;;;;;;72.65;56.70;;;;;;;15.75;100.00;95604.84;6249366;22;20660;-82
2023/05/23 05:18:00;;;;;;;71.95;57.92;;;;;;;15.64;100.00;95607.88;6223015;22;20165;-83
2023/05/23 05:20:25;;;;;;;68.63;53.42;;;;;;;15.75;100.00;95610.88;6279133;22;20191;-82
2023/05/23 05:22:56;;;;;;;70.22;54.95;;;;;;;15.61;100.00;95619.50;6253883;22;20175;-82
2023/05/23 05:25:22;;;;;;;70.70;54.97;;;;;;;15.82;99.93;95616.22;6252912;22;20507;-83
2023/05/23 05:27:47;;;;;;;66.00;54.03;;;;;;;15.73;100.00;95614.69;6305589;22;20155;-83
2023/05/23 05:30:12;;;;;;;68.75;55.60;;;;;;;15.63;100.00;95614.09;6253461;22;20633;-84
2023/05/23 05:32:38;;;;;;;74.85;57.20;;;;;;;15.72;100.00;95610.41;6279226;22;20200;-82
2023/05/23 05:35:03;;;;;;;72.07;55.53;;;;;;;15.81;99.84;95610.19;6253051;22;20167;-82
2023/05/23 05:37:28;;;;;;;66.97;54.38;;;;;;;15.80;98.67;95605.09;6253105;22;20156;-82
2023/05/23 05:39:54;;;;;;;62.75;51.97;;;;;;;15.89;98.75;95613.69;6253326;22;20191;-82
2023/05/23 05:42:23;;;;;;;62.83;53.72;;;;;;;15.90;98.17;95610.88;6253158;22;20180;-83
2023/05/23 05:44:48;;;;;;;62.42;51.42;;;;;;;15.97;98.33;95619.66;6253888;22;20162;-82
2023/05/23 05:47:14;;;;;;;62.22;51.22;;;;;;;15.95;97.60;95611.19;6253015;22;20243;-83
2023/05/23 05:49:39;;;;;;;67.32;52.33;;;;;;;16.09;97.11;95613.00;6253851;22;20201;-83
2023/05/23 05:52:07;;;;;;;68.38;53.40;;;;;;;16.07;97.43;95611.53;6253132;22;20229;-83
2023/05/23 05:54:33;;;;;;;62.13;47.17;;;;;;;15.99;96.42;95615.09;6252884;22;20159;-83
2023/05/23 05:56:58;;;;;;;59.40;49.40;;;;;;;15.99;97.08;95622.94;6252285;22;20156;-82
2023/05/23 05:59:24;;;;;;;57.60;46.60;;;;;;;16.01;96.66;95631.41;6279066;22;20207;-84
2023/05/23 06:01:50;;;;;;;60.50;48.30;;;;;;;16.04;96.03;95619.75;6253672;22;20184;-83
2023/05/23 06:04:16;;;;;;;52.05;45.30;;;;;;;16.02;96.04;95616.53;6253725;22;20333;-83
2023/05/23 06:06:42;;;;;;;54.70;45.60;;;;;;;16.02;95.19;95617.34;6255498;22;20156;-84
2023/05/23 06:09:07;;;;;;;54.33;48.25;;;;;;;16.05;95.02;95616.97;6256429;22;20162;-84
2023/05/23 06:11:32;;;;;;;52.13;45.58;;;;;;;16.11;94.66;95618.88;6255870;22;20477;-84
2023/05/23 06:13:58;;;;;;;55.92;43.33;;;;;;;16.22;94.07;95617.59;6256009;22;20217;-83
2023/05/23 06:16:23;;;;;;;49.05;42.60;;;;;;;16.28;93.45;95626.56;6254441;22;20161;-83
2023/05/23 06:18:48;;;;;;;50.63;42.55;;;;;;;16.14;93.05;95622.94;6247795;22;20219;-82
2023/05/23 06:21:13;;;;;;;52.03;41.95;;;;;;;16.00;93.25;95629.81;6249884;22;20195;-82
2023/05/23 06:23:39;;;;;;;47.53;41.03;;;;;;;15.94;94.20;95630.50;6250704;22;20209;-83
2023/05/23 06:26:09;;;;;;;48.90;41.95;;;;;;;15.97;93.82;95630.13;6248638;22;20546;-83
2023/05/23 06:28:34;;;;;;;48.05;40.85;;;;;;;15.80;94.98;95639.13;6277644;22;20141;-83
2023/05/23 06:30:59;;;;;;;50.42;41.95;;;;;;;15.75;94.60;95641.50;6277253;22;20175;-82
2023/05/23 06:33:25;;;;;;;48.33;42.45;;;;;;;15.64;94.86;95644.53;6250516;22;20680;-82
2023/05/23 06:35:50;;;;;;;46.33;41.28;;;;;;;15.67;94.38;95644.19;6249627;22;20159;-82
2023/05/23 06:38:15;;;;;;;51.97;43.35;;;;;;;15.70;93.74;95654.28;6250079;22;20160;-82
2023/05/23 06:40:41;;;;;;;54.22;46.28;;;;;;;15.58;95.04;95656.47;6250198;22;20153;-81
2023/05/23 06:43:06;;;;;;;56.60;45.30;;;;;;;15.33;95.73;95657.66;6276339;22;20155;-83
2023/05/23 06:45:33;;;;;;;60.53;47.45;;;;;;;15.40;95.57;95659.41;6249701;22;20168;-82
2023/05/23 06:48:00;;;;;;;53.70;43.65;;;;;;;15.41;94.64;95662.81;6277485;22;20152;-82
2023/05/23 06:50:25;;;;;;;51.30;42.88;;;;;;;15.41;94.50;95660.22;6252607;22;20178;-84
2023/05/23 06:52:50;;;;;;;50.95;42.78;;;;;;;15.37;94.48;95672.00;6251781;22;20635;-83
2023/05/23 06:55:18;;;;;;;54.45;42.85;;;;;;;15.35;94.01;95672.19;6251015;22;20622;-81
2023/05/23 06:57:43;;;;;;;43.53;38.80;;;;;;;15.36;93.31;95681.66;6251113;22;20152;-82
2023/05/23 07:00:10;;;;;;;45.38;39.33;;;;;;;15.21;93.11;95684.22;6201211;22;20187;-81
2023/05/23 07:02:35;;;;;;;45.60;39.15;;;;;;;15.43;92.66;95693.06;6250315;22;20188;-82
2023/05/23 07:05:03;;;;;;;43.13;37.20;;;;;;;15.30;92.58;95698.06;6251445;22;20620;-82
2023/05/23 07:07:29;;;;;;;44.17;37.85;;;;;;;15.30;92.01;95703.28;6230176;22;20516;-83
2023/05/23 07:09:54;;;;;;;44.00;36.75;;;;;;;15.38;91.88;95703.25;6280965;22;20149;-82
2023/05/23 07:12:19;;;;;;;40.03;34.95;;;;;;;15.43;91.68;95702.72;6282940;22;20176;-82
2023/05/23 07:14:44;;;;;;;40.55;35.47;;;;;;;15.35;90.43;95702.75;6256792;22;20171;-83
2023/05/23 07:17:10;;;;;;;41.08;33.78;;;;;;;15.56;89.09;95705.59;6255675;22;20164;-83
2023/05/23 07:19:36;;;;;;;38.13;31.17;;;;;;;15.49;88.82;95702.03;6271768;22;20184;-83
2023/05/23 07:22:01;;;;;;;36.25;31.42;;;;;;;15.58;88.36;95711.44;6257300;22;20172;-83
2023/05/23 07:24:27;;;;;;;41.83;31.65;;;;;;;15.44;87.37;95702.53;6255227;22;20210;-83
2023/05/23 07:26:52;;;;;;;34.72;30.27;;;;;;;15.59;86.68;95705.22;6281679;22;20467;-83
2023/05/23 07:29:17;;;;;;;33.80;29.63;;;;;;;15.59;86.33;95705.22;6257690;22;20160;-82
2023/05/23 07:31:42;;;;;;;32.88;29.30;;;;;;;15.73;86.52;95711.53;6258113;22;20176;-82
2023/05/23 07:34:08;;;;;;;33.80;30.02;;;;;;;15.71;85.64;95703.84;6281665;22;20153;-82
2023/05/23 07:36:34;;;;;;;33.30;29.65;;;;;;;15.86;84.41;95701.28;6281634;22;20148;-83
2023/05/23 07:39:00;;;;;;;33.97;29.25;;;;;;;15.94;82.66;95703.84;6257449;22;20714;-83
2023/05/23 07:41:25;;;;;;;34.05;30.10;;;;;;;16.47;80.69;95709.06;6256898;22;20180;-83
2023/05/23 07:43:50;;;;;;;30.52;27.42;;;;;;;16.73;78.64;95712.09;6231982;22;20161;-82
2023/05/23 07:46:16;;;;;;;32.55;27.83;;;;;;;16.83;77.72;95714.44;6281470;22;20153;-83
2023/05/23 07:48:41;;;;;;;30.23;27.05;;;;;;;16.81;76.34;95716.44;6257887;22;20238;-82
2023/05/23 07:51:06;;;;;;;30.73;27.52;;;;;;;16.61;75.86;95714.34;6256596;22;20642;-83
2023/05/23 07:53:32;;;;;;;27.48;24.77;;;;;;;16.64;76.29;95716.59;6256963;22;20156;-83
2023/05/23 07:55:57;;;;;;;27.75;24.75;;;;;;;16.25;77.85;95710.75;6282040;22;20204;-83
2023/05/23 07:58:22;;;;;;;28.80;25.73;;;;;;;16.17;78.64;95722.16;6257494;22;20160;-83
2023/05/23 08:00:49;;;;;;;29.17;26.05;;;;;;;15.92;78.60;95716.31;6284266;22;20168;-82
2023/05/23 08:03:15;;;;;;;31.05;26.77;;;;;;;15.92;79.28;95721.53;6260362;22;20186;-82
2023/05/23 08:05:41;;;;;;;29.63;26.52;;;;;;;15.94;79.98;95714.31;6259860;22;20599;-81
2023/05/23 08:08:06;;;;;;;29.65;25.77;;;;;;;16.28;79.04;95723.50;6284116;22;20153;-81
2023/05/23 08:10:31;;;;;;;29.83;26.73;;;;;;;15.88;79.22;95725.47;6284738;22;20156;-81
2023/05/23 08:12:59;;;;;;;28.20;25.20;;;;;;;16.05;79.80;95734.03;6259476;22;20202;-81
2023/05/23 08:15:24;;;;;;;32.42;27.33;;;;;;;15.58;80.82;95730.59;6260845;22;20153;-82
2023/05/23 08:17:50;;;;;;;28.70;25.70;;;;;;;15.72;80.36;95725.59;6284604;22;20456;-82
2023/05/23 08:20:15;;;;;;;31.80;26.35;;;;;;;16.29;78.69;95733.00;6283641;22;20672;-84
2023/05/23 08:22:40;;;;;;;28.58;24.80;;;;;;;16.34;78.09;95734.09;6251777;22;20176;-83
2023/05/23 08:25:06;;;;;;;28.23;25.17;;;;;;;16.48;77.47;95727.22;6276184;22;20168;-82
2023/05/23 08:27:31;;;;;;;30.75;25.60;;;;;;;16.56;77.66;95735.03;6249924;22;20157;-82
2023/05/23 08:29:57;;;;;;;28.70;25.60;;;;;;;16.54;77.42;95729.16;6250469;22;20157;-82
2023/05/23 08:32:22;;;;;;;27.75;24.92;;;;;;;16.59;76.98;95732.03;6250858;22;20180;-82
2023/05/23 08:34:48;;;;;;;28.63;25.52;;;;;;;16.20;78.88;95739.31;6251017;22;20152;-82
2023/05/23 08:37:13;;;;;;;30.88;26.33;;;;;;;16.54;77.76;95742.25;6275408;22;20209;-82
2023/05/23 08:39:38;;;;;;;29.42;25.75;;;;;;;16.38;77.82;95742.41;6250155;22;20573;-82
2023/05/23 08:42:04;;;;;;;28.23;24.80;;;;;;;16.57;77.01;95741.06;6277027;22;20199;-83
2023/05/23 08:44:30;;;;;;;28.70;25.00;;;;;;;16.50;77.21;95745.41;6250753;22;20160;-84
2023/05/23 08:46:57;;;;;;;30.00;24.60;;;;;;;16.49;77.65;95747.22;6250086;22;20220;-84
2023/05/23 08:49:22;;;;;;;27.27;24.33;;;;;;;16.72;76.53;95749.81;6275758;22;20222;-84
2023/05/23 08:51:51;;;;;;;26.35;23.52;;;;;;;16.54;77.19;95747.50;6277319;22;20172;-81
2023/05/23 08:54:17;;;;;;;30.10;24.50;;;;;;;16.31;76.14;95751.97;6276825;22;20161;-81
2023/05/23 08:56:50;;;;;;;25.45;22.75;;;;;;;16.39;76.51;95752.72;6251499;22;20207;-81
2023/05/23 08:59:15;;;;;;;28.90;24.00;;;;;;;16.66;76.18;95751.28;6253475;22;20229;-83
2023/05/23 09:01:42;;;;;;;26.27;23.58;;;;;;;16.87;75.41;95760.28;6251623;22;20180;-82
2023/05/23 09:04:08;;;;;;;25.15;22.15;;;;;;;17.17;73.75;95761.91;6250440;22;20167;-83
2023/05/23 09:06:34;;;;;;;24.30;21.67;;;;;;;17.43;72.87;95757.97;6251083;22;20618;-83
2023/05/23 09:08:59;;;;;;;24.88;20.45;;;;;;;17.38;70.39;95776.06;6251240;22;20201;-82
2023/05/23 09:11:24;;;;;;;23.35;20.85;;;;;;;17.68;69.94;95764.50;6277448;22;20176;-83
2023/05/23 09:13:50;;;;;;;21.95;19.65;;;;;;;18.08;69.81;95767.53;6276189;22;20168;-82
2023/05/23 09:16:16;;;;;;;22.33;19.60;;;;;;;17.76;69.62;95769.66;6276409;22;20152;-81
2023/05/23 09:18:43;;;;;;;22.35;20.05;;;;;;;17.79;69.17;95771.09;6256616;22;20192;-82
2023/05/23 09:21:09;;;;;;;20.27;18.08;;;;;;;17.63;68.77;95768.69;6256574;22;20176;-82
2023/05/23 09:23:36;;;;;;;20.02;17.88;;;;;;;17.99;66.61;95758.97;6281729;22;20236;-81
2023/05/23 09:26:06;;;;;;;20.98;18.23;;;;;;;18.14;67.13;95764.16;6254040;22;20158;-82
2023/05/23 09:28:32;;;;;;;20.73;18.48;;;;;;;18.23;65.80;95768.28;6255751;22;20161;-81
2023/05/23 09:31:02;;;;;;;19.77;17.77;;;;;;;18.19;66.29;95769.66;6256058;22;20203;-80
2023/05/23 09:33:51;;;;;;;20.35;18.40;;;;;;;17.99;67.22;95776.53;6255478;22;20152;-81
2023/05/23 09:36:17;;;;;;;19.50;17.45;;;;;;;17.70;66.58;95774.84;6260297;22;20159;-81
2023/05/23 09:38:45;;;;;;;19.25;17.35;;;;;;;17.96;65.05;95776.94;6274480;22;20188;-82
2023/05/23 09:41:13;;;;;;;17.85;16.08;;;;;;;18.61;63.92;95770.59;6273622;22;20179;-82
2023/05/23 09:44:00;;;;;;;20.42;18.33;;;;;;;18.52;63.17;95774.38;6270399;22;20557;-84
2023/05/23 09:46:29;;;;;;;18.88;17.17;;;;;;;18.53;63.72;95775.97;6312459;22;20624;-80
2023/05/23 09:48:55;;;;;;;19.77;17.75;;;;;;;18.14;63.42;95769.41;6258896;22;20203;-81
2023/05/23 09:51:21;;;;;;;18.45;16.60;;;;;;;19.03;61.51;95774.94;6311363;22;20174;-82
2023/05/23 09:53:47;;;;;;;18.95;17.05;;;;;;;19.07;62.33;95767.44;6283426;22;20182;-81
2023/05/23 09:56:14;;;;;;;20.70;18.42;;;;;;;18.93;61.82;95772.66;6256193;22;20601;-82
2023/05/23 09:58:43;;;;;;;22.13;18.35;;;;;;;19.01;61.62;95781.41;6255200;22;20563;-82
2023/05/23 10:01:09;;;;;;;21.73;19.45;;;;;;;19.35;60.44;95776.09;6255257;22;20297;-82
2023/05/23 10:03:48;;;;;;;21.85;18.67;;;;;;;19.60;59.91;95779.03;6281120;22;20537;-82
2023/05/23 10:06:25;;;;;;;19.67;17.67;;;;;;;19.32;61.13;95776.47;6279895;22;20137;-82
2023/05/23 10:08:56;;;;;;;21.10;18.17;;;;;;;19.15;60.73;95788.34;6255456;22;20222;-81
2023/05/23 10:11:33;;;;;;;19.88;17.75;;;;;;;18.47;61.82;95792.53;6257385;22;20176;-82
2023/05/23 10:14:06;;;;;;;18.80;17.00;;;;;;;18.82;60.53;95788.19;6312835;22;20148;-82
2023/05/23 10:16:50;;;;;;;19.27;17.10;;;;;;;18.88;61.72;95788.19;6255043;22;20179;-82
2023/05/23 10:19:20;;;;;;;18.48;16.58;;;;;;;18.64;62.44;95784.19;6249611;22;20195;-82
2023/05/23 10:21:49;;;;;;;19.70;17.35;;;;;;;18.62;62.73;95793.25;6281196;22;20247;-82
2023/05/23 10:24:15;;;;;;;17.48;15.77;;;;;;;18.71;61.57;95786.88;6225109;22;20226;-83
2023/05/23 10:26:42;;;;;;;17.30;15.60;;;;;;;18.64;62.62;95793.88;6222753;22;20537;-83
2023/05/23 10:29:07;;;;;;;17.80;16.00;;;;;;;17.77;64.91;95789.69;6224349;22;20260;-83
2023/05/23 10:31:33;;;;;;;16.98;15.27;;;;;;;18.35;64.87;95795.66;6275617;22;20618;-82
2023/05/23 10:34:10;;;;;;;17.25;15.55;;;;;;;18.60;63.85;95792.63;6224983;22;20244;-83
2023/05/23 10:36:44;;;;;;;18.40;16.50;;;;;;;18.87;61.89;95785.75;6249434;22;20140;-83
2023/05/23 10:39:32;;;;;;;16.92;15.23;;;;;;;19.43;59.72;95789.06;6224496;22;20243;-83
2023/05/23 10:42:02;;;;;;;16.17;14.57;;;;;;;19.56;56.87;95792.78;6223909;22;20180;-83
2023/05/23 10:44:31;;;;;;;16.02;14.43;;;;;;;19.31;57.01;95785.38;6224499;22;20156;-82
2023/05/23 10:47:01;;;;;;;17.38;15.20;;;;;;;19.87;57.10;95784.38;6225312;22;20536;-82
2023/05/23 10:49:46;;;;;;;16.45;14.73;;;;;;;19.49;56.53;95785.66;6224758;22;20159;-82
2023/05/23 10:52:12;;;;;;;14.95;13.45;;;;;;;19.88;55.92;95778.94;6225797;22;20263;-82
2023/05/23 10:54:50;;;;;;;15.13;13.70;;;;;;;20.04;55.12;95781.16;6226310;22;20160;-83
2023/05/23 10:57:16;;;;;;;14.98;13.52;;;;;;;20.46;52.59;95786.31;6250697;22;20156;-82
2023/05/23 10:59:41;;;;;;;14.13;12.73;;;;;;;20.86;54.18;95790.56;6225623;22;20177;-82
2023/05/23 11:02:12;;;;;;;15.50;14.00;;;;;;;20.76;54.81;95790.16;6226330;22;20173;-82
2023/05/23 11:04:37;;;;;;;14.90;13.50;;;;;;;20.48;53.12;95781.63;6251321;22;20129;-82
2023/05/23 11:07:03;;;;;;;13.15;11.85;;;;;;;21.07;52.84;95789.50;6251072;22;20157;-82
2023/05/23 11:09:28;;;;;;;13.43;12.23;;;;;;;21.00;52.71;95791.31;6252038;22;20231;-82
2023/05/23 11:11:54;;;;;;;12.57;11.30;;;;;;;20.88;53.38;95785.06;6251225;22;20570;-82
2023/05/23 11:14:29;;;;;;;12.98;11.77;;;;;;;20.47;53.42;95790.56;6250924;22;20160;-81